sensor_id;sensor_type;location;lat;lon;timestamp;temperature;humidity
24426;DHT22;12611;44.446;26.000;2023-07-09T00:02:22;22.20;73.30
24426;DHT22;12611;44.446;26.000;2023-07-09T00:04:51;22.20;73.40
24426;DHT22;12611;44.446;26.000;2023-07-09T00:07:24;22.10;73.40
24426;DHT22;12611;44.446;26.000;2023-07-09T00:09:55;22.10;73.50
24426;DHT22;12611;44.446;26.000;2023-07-09T00:12:24;22.10;73.70
24426;DHT22;12611;44.446;26.000;2023-07-09T00:14:54;22.10;73.70
24426;DHT22;12611;44.446;26.000;2023-07-09T00:17:27;22.00;74.00
24426;DHT22;12611;44.446;26.000;2023-07-09T00:19:57;22.00;74.00
24426;DHT22;12611;44.446;26.000;2023-07-09T00:22:26;22.00;73.90
24426;DHT22;12611;44.446;26.000;2023-07-09T00:24:55;21.90;74.10
24426;DHT22;12611;44.446;26.000;2023-07-09T00:27:27;21.90;74.60
24426;DHT22;12611;44.446;26.000;2023-07-09T00:29:58;21.90;74.70
24426;DHT22;12611;44.446;26.000;2023-07-09T00:32:27;21.80;74.60
24426;DHT22;12611;44.446;26.000;2023-07-09T00:34:56;21.80;74.70
24426;DHT22;12611;44.446;26.000;2023-07-09T00:37:25;21.80;74.90
24426;DHT22;12611;44.446;26.000;2023-07-09T00:39:54;21.80;75.20
24426;DHT22;12611;44.446;26.000;2023-07-09T00:42:23;21.80;75.20
24426;DHT22;12611;44.446;26.000;2023-07-09T00:44:54;21.70;75.20
24426;DHT22;12611;44.446;26.000;2023-07-09T00:47:28;21.70;75.20
24426;DHT22;12611;44.446;26.000;2023-07-09T00:50:11;21.70;75.20
24426;DHT22;12611;44.446;26.000;2023-07-09T00:52:49;21.70;76.10
24426;DHT22;12611;44.446;26.000;2023-07-09T00:55:24;21.70;75.40
24426;DHT22;12611;44.446;26.000;2023-07-09T00:57:57;21.70;75.30
24426;DHT22;12611;44.446;26.000;2023-07-09T01:00:30;21.70;75.60
24426;DHT22;12611;44.446;26.000;2023-07-09T01:03:22;21.70;75.90
24426;DHT22;12611;44.446;26.000;2023-07-09T01:05:53;21.60;75.70
24426;DHT22;12611;44.446;26.000;2023-07-09T01:08:22;21.60;76.40
24426;DHT22;12611;44.446;26.000;2023-07-09T01:10:51;21.60;77.00
24426;DHT22;12611;44.446;26.000;2023-07-09T01:13:19;21.60;77.70
24426;DHT22;12611;44.446;26.000;2023-07-09T01:15:48;21.50;77.50
24426;DHT22;12611;44.446;26.000;2023-07-09T01:18:19;21.50;78.30
24426;DHT22;12611;44.446;26.000;2023-07-09T01:20:48;21.50;77.60
24426;DHT22;12611;44.446;26.000;2023-07-09T01:23:20;21.50;77.50
24426;DHT22;12611;44.446;26.000;2023-07-09T01:25:51;21.40;77.30
24426;DHT22;12611;44.446;26.000;2023-07-09T01:28:21;21.40;77.20
24426;DHT22;12611;44.446;26.000;2023-07-09T01:30:50;21.40;77.00
24426;DHT22;12611;44.446;26.000;2023-07-09T01:33:22;21.40;77.00
24426;DHT22;12611;44.446;26.000;2023-07-09T01:35:51;21.30;77.00
24426;DHT22;12611;44.446;26.000;2023-07-09T01:38:24;21.30;77.00
24426;DHT22;12611;44.446;26.000;2023-07-09T01:40:57;21.30;77.10
24426;DHT22;12611;44.446;26.000;2023-07-09T01:43:26;21.30;77.20
24426;DHT22;12611;44.446;26.000;2023-07-09T01:45:54;21.30;77.20
24426;DHT22;12611;44.446;26.000;2023-07-09T01:48:25;21.20;77.70
24426;DHT22;12611;44.446;26.000;2023-07-09T01:50:54;21.20;78.00
24426;DHT22;12611;44.446;26.000;2023-07-09T01:53:26;21.20;77.90
24426;DHT22;12611;44.446;26.000;2023-07-09T01:55:58;21.10;77.90
24426;DHT22;12611;44.446;26.000;2023-07-09T01:58:28;21.10;78.20
24426;DHT22;12611;44.446;26.000;2023-07-09T02:00:59;21.10;78.40
24426;DHT22;12611;44.446;26.000;2023-07-09T02:03:29;21.00;78.50
24426;DHT22;12611;44.446;26.000;2023-07-09T02:05:57;21.00;79.10
24426;DHT22;12611;44.446;26.000;2023-07-09T02:08:28;21.00;79.40
24426;DHT22;12611;44.446;26.000;2023-07-09T02:10:56;20.90;80.50
24426;DHT22;12611;44.446;26.000;2023-07-09T02:13:25;20.80;80.30
24426;DHT22;12611;44.446;26.000;2023-07-09T02:15:56;20.80;80.00
24426;DHT22;12611;44.446;26.000;2023-07-09T02:18:25;20.80;80.00
24426;DHT22;12611;44.446;26.000;2023-07-09T02:20:53;20.80;80.00
24426;DHT22;12611;44.446;26.000;2023-07-09T02:23:27;20.70;80.50
24426;DHT22;12611;44.446;26.000;2023-07-09T02:25:56;20.70;80.50
24426;DHT22;12611;44.446;26.000;2023-07-09T02:28:25;20.70;81.00
24426;DHT22;12611;44.446;26.000;2023-07-09T02:30:53;20.60;81.00
24426;DHT22;12611;44.446;26.000;2023-07-09T02:33:22;20.60;81.10
24426;DHT22;12611;44.446;26.000;2023-07-09T02:35:51;20.50;80.90
24426;DHT22;12611;44.446;26.000;2023-07-09T02:38:19;20.50;80.90
24426;DHT22;12611;44.446;26.000;2023-07-09T02:40:50;20.50;81.30
24426;DHT22;12611;44.446;26.000;2023-07-09T02:43:20;20.50;81.20
24426;DHT22;12611;44.446;26.000;2023-07-09T02:45:49;20.50;81.20
24426;DHT22;12611;44.446;26.000;2023-07-09T02:48:18;20.50;81.10
24426;DHT22;12611;44.446;26.000;2023-07-09T02:50:46;20.50;81.40
24426;DHT22;12611;44.446;26.000;2023-07-09T02:53:15;20.40;81.40
24426;DHT22;12611;44.446;26.000;2023-07-09T02:55:44;20.40;81.20
24426;DHT22;12611;44.446;26.000;2023-07-09T02:58:14;20.40;82.10
24426;DHT22;12611;44.446;26.000;2023-07-09T03:00:43;20.40;81.10
24426;DHT22;12611;44.446;26.000;2023-07-09T03:03:20;20.40;81.10
24426;DHT22;12611;44.446;26.000;2023-07-09T03:05:49;20.40;81.50
24426;DHT22;12611;44.446;26.000;2023-07-09T03:08:17;20.40;81.30
24426;DHT22;12611;44.446;26.000;2023-07-09T03:10:46;20.40;81.40
24426;DHT22;12611;44.446;26.000;2023-07-09T03:13:16;20.40;81.30
24426;DHT22;12611;44.446;26.000;2023-07-09T03:15:54;20.40;81.40
24426;DHT22;12611;44.446;26.000;2023-07-09T03:18:23;20.40;81.40
24426;DHT22;12611;44.446;26.000;2023-07-09T03:20:52;20.40;81.30
24426;DHT22;12611;44.446;26.000;2023-07-09T03:23:21;20.40;82.10
24426;DHT22;12611;44.446;26.000;2023-07-09T03:25:50;20.40;81.80
24426;DHT22;12611;44.446;26.000;2023-07-09T03:28:20;20.40;81.80
24426;DHT22;12611;44.446;26.000;2023-07-09T03:30:49;20.40;82.30
24426;DHT22;12611;44.446;26.000;2023-07-09T03:33:20;20.40;82.20
24426;DHT22;12611;44.446;26.000;2023-07-09T03:35:49;20.40;82.00
24426;DHT22;12611;44.446;26.000;2023-07-09T03:38:18;20.40;81.90
24426;DHT22;12611;44.446;26.000;2023-07-09T03:40:50;20.50;81.90
24426;DHT22;12611;44.446;26.000;2023-07-09T03:43:21;20.50;81.70
24426;DHT22;12611;44.446;26.000;2023-07-09T03:45:50;20.60;81.90
24426;DHT22;12611;44.446;26.000;2023-07-09T03:48:19;20.60;81.70
24426;DHT22;12611;44.446;26.000;2023-07-09T03:50:48;20.60;81.60
24426;DHT22;12611;44.446;26.000;2023-07-09T03:53:17;20.70;81.60
24426;DHT22;12611;44.446;26.000;2023-07-09T03:55:50;20.70;81.70
24426;DHT22;12611;44.446;26.000;2023-07-09T03:58:21;20.70;81.70
24426;DHT22;12611;44.446;26.000;2023-07-09T04:00:50;20.70;81.80
24426;DHT22;12611;44.446;26.000;2023-07-09T04:03:19;20.70;81.70
24426;DHT22;12611;44.446;26.000;2023-07-09T04:05:48;20.80;81.60
24426;DHT22;12611;44.446;26.000;2023-07-09T04:08:16;20.80;81.60
24426;DHT22;12611;44.446;26.000;2023-07-09T04:10:45;20.90;81.60
24426;DHT22;12611;44.446;26.000;2023-07-09T04:13:13;20.90;81.60
24426;DHT22;12611;44.446;26.000;2023-07-09T04:15:44;21.00;81.50
24426;DHT22;12611;44.446;26.000;2023-07-09T04:18:12;21.10;81.40
24426;DHT22;12611;44.446;26.000;2023-07-09T04:20:41;21.10;81.30
24426;DHT22;12611;44.446;26.000;2023-07-09T04:23:10;21.20;81.10
24426;DHT22;12611;44.446;26.000;2023-07-09T04:25:39;21.30;81.10
24426;DHT22;12611;44.446;26.000;2023-07-09T04:28:08;21.30;81.00
24426;DHT22;12611;44.446;26.000;2023-07-09T04:30:37;21.40;81.00
24426;DHT22;12611;44.446;26.000;2023-07-09T04:33:08;21.50;81.10
24426;DHT22;12611;44.446;26.000;2023-07-09T04:35:36;21.50;81.10
24426;DHT22;12611;44.446;26.000;2023-07-09T04:38:05;21.60;81.10
24426;DHT22;12611;44.446;26.000;2023-07-09T04:40:35;21.70;81.00
24426;DHT22;12611;44.446;26.000;2023-07-09T04:43:04;21.70;80.90
24426;DHT22;12611;44.446;26.000;2023-07-09T04:45:33;21.70;80.80
24426;DHT22;12611;44.446;26.000;2023-07-09T04:48:01;21.90;80.80
24426;DHT22;12611;44.446;26.000;2023-07-09T04:50:32;21.90;80.60
24426;DHT22;12611;44.446;26.000;2023-07-09T04:53:00;22.00;80.40
24426;DHT22;12611;44.446;26.000;2023-07-09T04:55:29;22.10;80.00
24426;DHT22;12611;44.446;26.000;2023-07-09T04:57:59;22.20;79.90
24426;DHT22;12611;44.446;26.000;2023-07-09T05:00:27;22.20;79.70
24426;DHT22;12611;44.446;26.000;2023-07-09T05:02:56;22.40;79.90
24426;DHT22;12611;44.446;26.000;2023-07-09T05:05:24;22.50;79.80
24426;DHT22;12611;44.446;26.000;2023-07-09T05:07:55;22.50;79.40
24426;DHT22;12611;44.446;26.000;2023-07-09T05:10:23;22.60;79.40
24426;DHT22;12611;44.446;26.000;2023-07-09T05:12:54;22.60;79.40
24426;DHT22;12611;44.446;26.000;2023-07-09T05:15:23;22.70;79.30
24426;DHT22;12611;44.446;26.000;2023-07-09T05:17:52;22.70;79.10
24426;DHT22;12611;44.446;26.000;2023-07-09T05:20:20;22.80;78.90
24426;DHT22;12611;44.446;26.000;2023-07-09T05:22:49;22.90;78.60
24426;DHT22;12611;44.446;26.000;2023-07-09T05:25:19;23.00;78.50
24426;DHT22;12611;44.446;26.000;2023-07-09T05:27:48;23.10;78.30
24426;DHT22;12611;44.446;26.000;2023-07-09T05:30:16;23.10;78.00
24426;DHT22;12611;44.446;26.000;2023-07-09T05:32:45;23.20;78.10
24426;DHT22;12611;44.446;26.000;2023-07-09T05:35:15;23.20;77.90
24426;DHT22;12611;44.446;26.000;2023-07-09T05:37:44;23.30;78.60
24426;DHT22;12611;44.446;26.000;2023-07-09T05:40:12;23.40;77.40
24426;DHT22;12611;44.446;26.000;2023-07-09T05:42:43;23.50;77.10
24426;DHT22;12611;44.446;26.000;2023-07-09T05:45:11;23.50;75.20
24426;DHT22;12611;44.446;26.000;2023-07-09T05:47:40;23.60;74.90
24426;DHT22;12611;44.446;26.000;2023-07-09T05:50:09;23.70;74.30
24426;DHT22;12611;44.446;26.000;2023-07-09T05:52:38;23.80;74.00
24426;DHT22;12611;44.446;26.000;2023-07-09T05:55:07;23.80;74.70
24426;DHT22;12611;44.446;26.000;2023-07-09T05:57:36;23.90;74.10
24426;DHT22;12611;44.446;26.000;2023-07-09T06:00:08;24.00;74.10
24426;DHT22;12611;44.446;26.000;2023-07-09T06:02:39;24.10;73.80
24426;DHT22;12611;44.446;26.000;2023-07-09T06:05:08;24.20;73.70
24426;DHT22;12611;44.446;26.000;2023-07-09T06:07:39;24.30;73.80
24426;DHT22;12611;44.446;26.000;2023-07-09T06:10:08;24.30;73.80
24426;DHT22;12611;44.446;26.000;2023-07-09T06:12:37;24.50;73.50
24426;DHT22;12611;44.446;26.000;2023-07-09T06:15:10;24.50;72.90
24426;DHT22;12611;44.446;26.000;2023-07-09T06:17:39;24.60;72.30
24426;DHT22;12611;44.446;26.000;2023-07-09T06:20:09;24.70;71.40
24426;DHT22;12611;44.446;26.000;2023-07-09T06:22:39;24.80;70.70
24426;DHT22;12611;44.446;26.000;2023-07-09T06:25:08;24.90;68.40
24426;DHT22;12611;44.446;26.000;2023-07-09T06:27:36;25.00;67.70
24426;DHT22;12611;44.446;26.000;2023-07-09T06:30:06;25.00;67.70
24426;DHT22;12611;44.446;26.000;2023-07-09T06:32:36;25.10;67.90
24426;DHT22;12611;44.446;26.000;2023-07-09T06:35:05;25.20;67.30
24426;DHT22;12611;44.446;26.000;2023-07-09T06:37:33;25.30;65.80
24426;DHT22;12611;44.446;26.000;2023-07-09T06:40:01;25.30;65.00
24426;DHT22;12611;44.446;26.000;2023-07-09T06:42:31;25.40;65.10
24426;DHT22;12611;44.446;26.000;2023-07-09T06:45:00;25.50;64.10
24426;DHT22;12611;44.446;26.000;2023-07-09T06:47:29;25.60;64.70
24426;DHT22;12611;44.446;26.000;2023-07-09T06:49:59;25.60;64.20
24426;DHT22;12611;44.446;26.000;2023-07-09T06:52:27;25.70;64.30
24426;DHT22;12611;44.446;26.000;2023-07-09T06:54:58;25.80;64.90
24426;DHT22;12611;44.446;26.000;2023-07-09T06:57:26;25.90;65.10
24426;DHT22;12611;44.446;26.000;2023-07-09T06:59:55;26.00;65.00
24426;DHT22;12611;44.446;26.000;2023-07-09T07:02:23;26.00;64.40
24426;DHT22;12611;44.446;26.000;2023-07-09T07:04:52;26.10;64.50
24426;DHT22;12611;44.446;26.000;2023-07-09T07:07:22;26.10;60.70
24426;DHT22;12611;44.446;26.000;2023-07-09T07:09:51;26.20;60.10
24426;DHT22;12611;44.446;26.000;2023-07-09T07:12:27;26.20;60.90
24426;DHT22;12611;44.446;26.000;2023-07-09T07:14:56;26.30;60.30
24426;DHT22;12611;44.446;26.000;2023-07-09T07:17:25;26.40;60.70
24426;DHT22;12611;44.446;26.000;2023-07-09T07:19:53;26.40;60.70
24426;DHT22;12611;44.446;26.000;2023-07-09T07:22:23;26.50;60.70
24426;DHT22;12611;44.446;26.000;2023-07-09T07:24:53;26.50;59.50
24426;DHT22;12611;44.446;26.000;2023-07-09T07:27:22;26.60;58.40
24426;DHT22;12611;44.446;26.000;2023-07-09T07:29:50;26.60;58.20
24426;DHT22;12611;44.446;26.000;2023-07-09T07:32:19;26.70;57.80
24426;DHT22;12611;44.446;26.000;2023-07-09T07:34:47;26.70;56.60
24426;DHT22;12611;44.446;26.000;2023-07-09T07:37:18;26.70;56.20
24426;DHT22;12611;44.446;26.000;2023-07-09T07:39:49;26.80;56.70
24426;DHT22;12611;44.446;26.000;2023-07-09T07:42:17;26.80;56.90
24426;DHT22;12611;44.446;26.000;2023-07-09T07:44:46;26.90;57.20
24426;DHT22;12611;44.446;26.000;2023-07-09T07:47:15;26.90;57.20
24426;DHT22;12611;44.446;26.000;2023-07-09T07:49:44;27.00;57.20
24426;DHT22;12611;44.446;26.000;2023-07-09T07:52:12;27.00;56.30
24426;DHT22;12611;44.446;26.000;2023-07-09T07:54:42;27.00;54.70
24426;DHT22;12611;44.446;26.000;2023-07-09T07:57:12;27.10;54.50
24426;DHT22;12611;44.446;26.000;2023-07-09T07:59:41;27.10;55.10
24426;DHT22;12611;44.446;26.000;2023-07-09T08:02:12;27.10;54.40
24426;DHT22;12611;44.446;26.000;2023-07-09T08:04:42;27.20;53.10
24426;DHT22;12611;44.446;26.000;2023-07-09T08:07:10;27.20;53.40
24426;DHT22;12611;44.446;26.000;2023-07-09T08:09:39;27.20;52.80
24426;DHT22;12611;44.446;26.000;2023-07-09T08:12:12;27.30;54.10
24426;DHT22;12611;44.446;26.000;2023-07-09T08:14:44;27.30;53.10
24426;DHT22;12611;44.446;26.000;2023-07-09T08:17:13;27.40;52.90
24426;DHT22;12611;44.446;26.000;2023-07-09T08:19:45;27.40;53.10
24426;DHT22;12611;44.446;26.000;2023-07-09T08:22:14;27.50;53.40
24426;DHT22;12611;44.446;26.000;2023-07-09T08:24:43;27.50;52.80
24426;DHT22;12611;44.446;26.000;2023-07-09T08:27:14;27.50;53.20
24426;DHT22;12611;44.446;26.000;2023-07-09T08:29:42;27.60;52.00
24426;DHT22;12611;44.446;26.000;2023-07-09T08:32:11;27.60;51.90
24426;DHT22;12611;44.446;26.000;2023-07-09T08:34:40;27.60;52.60
24426;DHT22;12611;44.446;26.000;2023-07-09T08:37:29;27.70;52.40
24426;DHT22;12611;44.446;26.000;2023-07-09T08:39:58;27.80;53.40
24426;DHT22;12611;44.446;26.000;2023-07-09T08:42:31;27.80;52.70
24426;DHT22;12611;44.446;26.000;2023-07-09T08:45:21;27.80;52.80
24426;DHT22;12611;44.446;26.000;2023-07-09T08:47:58;27.90;52.80
24426;DHT22;12611;44.446;26.000;2023-07-09T08:50:35;28.00;52.60
24426;DHT22;12611;44.446;26.000;2023-07-09T08:53:05;28.00;52.80
24426;DHT22;12611;44.446;26.000;2023-07-09T08:55:37;28.10;52.90
24426;DHT22;12611;44.446;26.000;2023-07-09T08:58:14;28.10;52.40
24426;DHT22;12611;44.446;26.000;2023-07-09T09:00:49;28.20;52.60
24426;DHT22;12611;44.446;26.000;2023-07-09T09:03:28;28.20;52.40
24426;DHT22;12611;44.446;26.000;2023-07-09T09:05:58;28.30;52.20
24426;DHT22;12611;44.446;26.000;2023-07-09T09:08:36;28.30;51.30
24426;DHT22;12611;44.446;26.000;2023-07-09T09:11:15;28.30;51.00
24426;DHT22;12611;44.446;26.000;2023-07-09T09:13:52;28.30;50.50
24426;DHT22;12611;44.446;26.000;2023-07-09T09:16:26;28.30;50.50
24426;DHT22;12611;44.446;26.000;2023-07-09T09:18:58;28.40;50.70
24426;DHT22;12611;44.446;26.000;2023-07-09T09:21:31;28.40;51.00
24426;DHT22;12611;44.446;26.000;2023-07-09T09:24:12;28.50;50.90
24426;DHT22;12611;44.446;26.000;2023-07-09T09:26:42;28.50;50.90
24426;DHT22;12611;44.446;26.000;2023-07-09T09:29:14;28.50;50.90
24426;DHT22;12611;44.446;26.000;2023-07-09T09:31:45;28.60;50.10
24426;DHT22;12611;44.446;26.000;2023-07-09T09:34:18;28.60;49.50
24426;DHT22;12611;44.446;26.000;2023-07-09T09:36:48;28.60;49.70
24426;DHT22;12611;44.446;26.000;2023-07-09T09:39:17;28.70;49.60
24426;DHT22;12611;44.446;26.000;2023-07-09T09:41:47;28.70;49.10
24426;DHT22;12611;44.446;26.000;2023-07-09T09:44:24;28.80;49.40
24426;DHT22;12611;44.446;26.000;2023-07-09T09:46:56;28.80;48.50
24426;DHT22;12611;44.446;26.000;2023-07-09T09:49:27;28.80;48.70
24426;DHT22;12611;44.446;26.000;2023-07-09T09:52:02;28.90;48.60
24426;DHT22;12611;44.446;26.000;2023-07-09T09:54:31;28.90;49.10
24426;DHT22;12611;44.446;26.000;2023-07-09T09:57:00;28.90;47.80
24426;DHT22;12611;44.446;26.000;2023-07-09T09:59:31;29.00;47.20
24426;DHT22;12611;44.446;26.000;2023-07-09T10:02:02;29.00;47.70
24426;DHT22;12611;44.446;26.000;2023-07-09T10:04:30;29.00;47.60
24426;DHT22;12611;44.446;26.000;2023-07-09T10:07:03;29.10;48.10
24426;DHT22;12611;44.446;26.000;2023-07-09T10:09:41;29.20;48.60
24426;DHT22;12611;44.446;26.000;2023-07-09T10:12:16;29.20;47.50
24426;DHT22;12611;44.446;26.000;2023-07-09T10:14:59;29.30;48.00
24426;DHT22;12611;44.446;26.000;2023-07-09T10:17:35;29.30;46.90
24426;DHT22;12611;44.446;26.000;2023-07-09T10:20:15;29.30;46.90
24426;DHT22;12611;44.446;26.000;2023-07-09T10:22:52;29.40;47.40
24426;DHT22;12611;44.446;26.000;2023-07-09T10:25:35;29.40;47.70
24426;DHT22;12611;44.446;26.000;2023-07-09T10:28:19;29.40;47.20
24426;DHT22;12611;44.446;26.000;2023-07-09T10:30:57;29.50;47.20
24426;DHT22;12611;44.446;26.000;2023-07-09T10:33:40;29.50;46.90
24426;DHT22;12611;44.446;26.000;2023-07-09T10:36:22;29.60;47.00
24426;DHT22;12611;44.446;26.000;2023-07-09T10:38:57;29.60;46.40
24426;DHT22;12611;44.446;26.000;2023-07-09T10:41:28;29.60;46.20
24426;DHT22;12611;44.446;26.000;2023-07-09T10:44:02;29.60;46.10
24426;DHT22;12611;44.446;26.000;2023-07-09T10:46:37;29.70;45.60
24426;DHT22;12611;44.446;26.000;2023-07-09T10:49:10;29.70;46.10
24426;DHT22;12611;44.446;26.000;2023-07-09T10:51:43;29.80;46.40
24426;DHT22;12611;44.446;26.000;2023-07-09T10:54:21;29.80;46.50
24426;DHT22;12611;44.446;26.000;2023-07-09T10:56:58;29.80;46.50
24426;DHT22;12611;44.446;26.000;2023-07-09T10:59:30;29.90;46.80
24426;DHT22;12611;44.446;26.000;2023-07-09T11:02:08;29.90;46.60
24426;DHT22;12611;44.446;26.000;2023-07-09T11:04:45;29.90;46.00
24426;DHT22;12611;44.446;26.000;2023-07-09T11:07:18;29.90;45.60
24426;DHT22;12611;44.446;26.000;2023-07-09T11:09:51;29.90;45.60
24426;DHT22;12611;44.446;26.000;2023-07-09T11:12:29;30.00;46.20
24426;DHT22;12611;44.446;26.000;2023-07-09T11:15:04;30.10;46.70
24426;DHT22;12611;44.446;26.000;2023-07-09T11:17:38;30.10;46.80
24426;DHT22;12611;44.446;26.000;2023-07-09T11:20:17;30.20;46.50
24426;DHT22;12611;44.446;26.000;2023-07-09T11:22:52;30.20;46.80
24426;DHT22;12611;44.446;26.000;2023-07-09T11:25:30;30.30;46.30
24426;DHT22;12611;44.446;26.000;2023-07-09T11:28:04;30.30;46.20
24426;DHT22;12611;44.446;26.000;2023-07-09T11:30:33;30.30;46.10
24426;DHT22;12611;44.446;26.000;2023-07-09T11:33:18;30.40;46.80
24426;DHT22;12611;44.446;26.000;2023-07-09T11:35:52;30.50;46.70
24426;DHT22;12611;44.446;26.000;2023-07-09T11:38:23;30.50;46.80
24426;DHT22;12611;44.446;26.000;2023-07-09T11:40:53;30.50;47.00
24426;DHT22;12611;44.446;26.000;2023-07-09T11:43:32;30.50;46.80
24426;DHT22;12611;44.446;26.000;2023-07-09T11:46:07;30.60;47.20
24426;DHT22;12611;44.446;26.000;2023-07-09T11:48:41;30.60;47.30
24426;DHT22;12611;44.446;26.000;2023-07-09T11:51:15;30.60;47.30
24426;DHT22;12611;44.446;26.000;2023-07-09T11:53:47;30.70;47.50
24426;DHT22;12611;44.446;26.000;2023-07-09T11:56:19;30.80;47.10
24426;DHT22;12611;44.446;26.000;2023-07-09T11:58:48;30.80;46.90
24426;DHT22;12611;44.446;26.000;2023-07-09T12:01:22;30.80;46.90
24426;DHT22;12611;44.446;26.000;2023-07-09T12:03:53;30.80;46.80
24426;DHT22;12611;44.446;26.000;2023-07-09T12:06:26;30.80;46.90
24426;DHT22;12611;44.446;26.000;2023-07-09T12:08:56;30.80;46.70
24426;DHT22;12611;44.446;26.000;2023-07-09T12:11:27;30.80;46.90
24426;DHT22;12611;44.446;26.000;2023-07-09T12:14:01;30.90;47.30
24426;DHT22;12611;44.446;26.000;2023-07-09T12:16:33;31.00;47.10
24426;DHT22;12611;44.446;26.000;2023-07-09T12:19:04;31.10;46.80
24426;DHT22;12611;44.446;26.000;2023-07-09T12:21:36;31.10;47.90
24426;DHT22;12611;44.446;26.000;2023-07-09T12:24:17;31.30;47.20
24426;DHT22;12611;44.446;26.000;2023-07-09T12:26:48;31.30;45.80
24426;DHT22;12611;44.446;26.000;2023-07-09T12:29:17;31.40;46.10
24426;DHT22;12611;44.446;26.000;2023-07-09T12:31:46;31.50;46.30
24426;DHT22;12611;44.446;26.000;2023-07-09T12:34:16;31.60;47.10
24426;DHT22;12611;44.446;26.000;2023-07-09T12:36:49;31.70;46.30
24426;DHT22;12611;44.446;26.000;2023-07-09T12:39:24;31.70;46.10
24426;DHT22;12611;44.446;26.000;2023-07-09T12:41:55;31.70;46.50
24426;DHT22;12611;44.446;26.000;2023-07-09T12:44:24;31.70;46.10
24426;DHT22;12611;44.446;26.000;2023-07-09T12:46:55;31.80;45.70
24426;DHT22;12611;44.446;26.000;2023-07-09T12:49:28;31.90;45.70
24426;DHT22;12611;44.446;26.000;2023-07-09T12:52:00;31.90;45.30
24426;DHT22;12611;44.446;26.000;2023-07-09T12:54:30;32.00;45.60
24426;DHT22;12611;44.446;26.000;2023-07-09T12:56:59;32.00;45.00
24426;DHT22;12611;44.446;26.000;2023-07-09T12:59:38;32.10;44.90
24426;DHT22;12611;44.446;26.000;2023-07-09T13:02:13;32.10;44.80
24426;DHT22;12611;44.446;26.000;2023-07-09T13:04:44;32.10;44.30
24426;DHT22;12611;44.446;26.000;2023-07-09T13:07:29;32.10;44.40
24426;DHT22;12611;44.446;26.000;2023-07-09T13:10:05;32.20;44.30
24426;DHT22;12611;44.446;26.000;2023-07-09T13:12:39;32.20;44.80
24426;DHT22;12611;44.446;26.000;2023-07-09T13:15:22;32.20;44.50
24426;DHT22;12611;44.446;26.000;2023-07-09T13:17:58;32.40;44.60
24426;DHT22;12611;44.446;26.000;2023-07-09T13:20:30;32.50;44.40
24426;DHT22;12611;44.446;26.000;2023-07-09T13:22:59;32.60;44.70
24426;DHT22;12611;44.446;26.000;2023-07-09T13:25:28;32.60;43.80
24426;DHT22;12611;44.446;26.000;2023-07-09T13:28:16;32.60;43.70
24426;DHT22;12611;44.446;26.000;2023-07-09T13:30:50;32.60;43.90
24426;DHT22;12611;44.446;26.000;2023-07-09T13:33:20;32.60;43.60
24426;DHT22;12611;44.446;26.000;2023-07-09T13:35:51;32.50;43.20
24426;DHT22;12611;44.446;26.000;2023-07-09T13:38:22;32.50;43.40
24426;DHT22;12611;44.446;26.000;2023-07-09T13:41:08;32.50;43.60
24426;DHT22;12611;44.446;26.000;2023-07-09T13:43:43;32.50;43.40
24426;DHT22;12611;44.446;26.000;2023-07-09T13:46:12;32.40;43.00
24426;DHT22;12611;44.446;26.000;2023-07-09T13:48:42;32.50;43.40
24426;DHT22;12611;44.446;26.000;2023-07-09T13:51:17;32.40;43.60
24426;DHT22;12611;44.446;26.000;2023-07-09T13:53:47;32.40;43.30
24426;DHT22;12611;44.446;26.000;2023-07-09T13:56:16;32.40;43.60
24426;DHT22;12611;44.446;26.000;2023-07-09T13:58:44;32.40;43.80
24426;DHT22;12611;44.446;26.000;2023-07-09T14:01:14;32.50;44.00
24426;DHT22;12611;44.446;26.000;2023-07-09T14:03:43;32.50;43.80
24426;DHT22;12611;44.446;26.000;2023-07-09T14:06:13;32.50;43.80
24426;DHT22;12611;44.446;26.000;2023-07-09T14:08:43;32.60;43.60
24426;DHT22;12611;44.446;26.000;2023-07-09T14:11:13;32.60;43.40
24426;DHT22;12611;44.446;26.000;2023-07-09T14:13:42;32.70;43.50
24426;DHT22;12611;44.446;26.000;2023-07-09T14:16:11;32.80;42.90
24426;DHT22;12611;44.446;26.000;2023-07-09T14:18:42;33.00;43.00
24426;DHT22;12611;44.446;26.000;2023-07-09T14:21:12;33.10;43.30
24426;DHT22;12611;44.446;26.000;2023-07-09T14:23:43;33.30;43.80
24426;DHT22;12611;44.446;26.000;2023-07-09T14:26:12;33.40;43.00
24426;DHT22;12611;44.446;26.000;2023-07-09T14:28:40;33.50;42.80
24426;DHT22;12611;44.446;26.000;2023-07-09T14:31:19;33.60;43.10
24426;DHT22;12611;44.446;26.000;2023-07-09T14:33:48;33.80;43.00
24426;DHT22;12611;44.446;26.000;2023-07-09T14:36:17;33.90;42.40
24426;DHT22;12611;44.446;26.000;2023-07-09T14:38:46;33.80;42.50
24426;DHT22;12611;44.446;26.000;2023-07-09T14:41:20;33.80;42.70
24426;DHT22;12611;44.446;26.000;2023-07-09T14:43:49;33.70;42.70
24426;DHT22;12611;44.446;26.000;2023-07-09T14:46:18;33.70;42.60
24426;DHT22;12611;44.446;26.000;2023-07-09T14:48:49;33.60;43.10
24426;DHT22;12611;44.446;26.000;2023-07-09T14:51:19;33.50;43.30
24426;DHT22;12611;44.446;26.000;2023-07-09T14:53:49;33.40;43.50
24426;DHT22;12611;44.446;26.000;2023-07-09T14:56:18;33.30;43.10
24426;DHT22;12611;44.446;26.000;2023-07-09T14:58:48;33.30;43.30
24426;DHT22;12611;44.446;26.000;2023-07-09T15:01:17;33.20;43.60
24426;DHT22;12611;44.446;26.000;2023-07-09T15:03:47;33.20;43.60
24426;DHT22;12611;44.446;26.000;2023-07-09T15:06:28;33.00;43.60
24426;DHT22;12611;44.446;26.000;2023-07-09T15:09:11;33.00;43.60
24426;DHT22;12611;44.446;26.000;2023-07-09T15:11:40;32.90;43.90
24426;DHT22;12611;44.446;26.000;2023-07-09T15:14:11;32.80;43.80
24426;DHT22;12611;44.446;26.000;2023-07-09T15:16:40;32.70;43.80
24426;DHT22;12611;44.446;26.000;2023-07-09T15:19:12;32.80;44.20
24426;DHT22;12611;44.446;26.000;2023-07-09T15:21:41;32.80;44.40
24426;DHT22;12611;44.446;26.000;2023-07-09T15:24:15;32.70;44.10
24426;DHT22;12611;44.446;26.000;2023-07-09T15:26:49;32.60;44.40
24426;DHT22;12611;44.446;26.000;2023-07-09T15:29:20;32.60;44.80
24426;DHT22;12611;44.446;26.000;2023-07-09T15:31:48;32.60;44.80
24426;DHT22;12611;44.446;26.000;2023-07-09T15:34:17;32.60;44.90
24426;DHT22;12611;44.446;26.000;2023-07-09T15:36:47;32.60;45.00
24426;DHT22;12611;44.446;26.000;2023-07-09T15:39:18;32.60;45.00
24426;DHT22;12611;44.446;26.000;2023-07-09T15:41:47;32.70;44.80